Time;durP1;ratioP1;P1;durP2;ratioP2;P2;SDS_P1;SDS_P2;PMS_P1;PMS_P2;Temp;Humidity;BMP_temperature;BMP_pressure;BME280_temperature;BME280_humidity;BME280_pressure;Samples;Min_cycle;Max_cycle;Signal;HPM_P1;HPM_P2
2022/09/30 00:00:22;;;;;;;0.00;0.00;;;5.70;99.90;;;;;;5083363;28;20087;-86
2022/09/30 00:02:47;;;;;;;0.10;0.10;;;6.90;99.90;;;;;;5088523;28;20048;-85
2022/09/30 00:05:13;;;;;;;0.00;0.00;;;5.70;99.90;;;;;;5072452;28;20395;-85
2022/09/30 00:07:39;;;;;;;0.15;0.08;;;5.60;99.90;;;;;;5106670;28;20040;-85
2022/09/30 00:10:06;;;;;;;0.00;0.00;;;6.40;99.90;;;;;;5106316;28;20039;-85
2022/09/30 00:12:32;;;;;;;0.10;0.10;;;5.60;99.90;;;;;;5105753;28;20048;-86
2022/09/30 00:14:57;;;;;;;0.00;0.00;;;5.60;99.90;;;;;;5105737;28;20096;-86
2022/09/30 00:17:23;;;;;;;0.10;0.10;;;6.70;99.90;;;;;;5103545;28;20052;-85
2022/09/30 00:19:49;;;;;;;0.00;0.00;;;5.60;99.90;;;;;;5102010;28;20091;-84
2022/09/30 00:22:14;;;;;;;0.00;0.00;;;5.50;99.90;;;;;;5108239;28;20095;-86
2022/09/30 00:24:40;;;;;;;0.32;0.32;;;5.50;99.90;;;;;;5110356;28;20073;-85
2022/09/30 00:27:06;;;;;;;0.00;0.00;;;5.30;99.90;;;;;;5111906;28;20032;-86
2022/09/30 00:29:32;;;;;;;0.00;0.00;;;5.10;99.90;;;;;;5092265;28;20055;-85
2022/09/30 00:31:57;;;;;;;1.08;0.38;;;5.20;99.90;;;;;;5109112;28;20085;-86
2022/09/30 00:34:23;;;;;;;0.00;0.00;;;5.10;99.90;;;;;;5086811;28;20127;-84
2022/09/30 00:36:52;;;;;;;0.00;0.00;;;5.10;99.90;;;;;;5102158;28;20076;-86
2022/09/30 00:39:24;;;;;;;0.10;0.10;;;5.10;99.90;;;;;;5084317;28;20058;-85
2022/09/30 00:41:56;;;;;;;0.00;0.00;;;5.10;99.90;;;;;;5086188;28;20291;-86
2022/09/30 00:44:44;;;;;;;0.00;0.00;;;5.10;99.90;;;;;;5071035;28;20101;-85
2022/09/30 00:47:28;;;;;;;0.00;0.00;;;5.10;99.90;;;;;;5085152;28;20040;-86
2022/09/30 00:49:58;;;;;;;0.05;0.05;;;4.10;99.90;;;;;;5083823;28;20052;-85
2022/09/30 00:52:25;;;;;;;0.00;0.00;;;4.90;99.90;;;;;;5105192;28;20518;-85
2022/09/30 00:54:52;;;;;;;0.00;0.00;;;5.40;99.90;;;;;;5091485;28;20044;-85
2022/09/30 00:57:18;;;;;;;0.00;0.00;;;5.10;99.90;;;;;;5091526;28;20085;-86
2022/09/30 00:59:47;;;;;;;0.20;0.13;;;6.30;99.90;;;;;;5111705;28;20040;-86
2022/09/30 01:02:13;;;;;;;0.00;0.00;;;5.30;99.90;;;;;;5110942;28;20115;-85
2022/09/30 01:04:41;;;;;;;0.00;0.00;;;5.20;99.90;;;;;;5077097;28;20066;-85
2022/09/30 01:07:08;;;;;;;0.20;0.20;;;5.90;99.90;;;;;;5077659;28;20048;-85
2022/09/30 01:09:35;;;;;;;0.00;0.00;;;5.20;99.90;;;;;;5111028;28;20044;-86
2022/09/30 01:12:09;;;;;;;0.00;0.00;;;5.10;99.90;;;;;;5094135;28;20044;-86
2022/09/30 01:14:36;;;;;;;0.50;0.50;;;5.10;99.90;;;;;;5112053;28;20063;-86
2022/09/30 01:17:24;;;;;;;0.00;0.00;;;5.10;99.90;;;;;;5077866;28;20052;-86
2022/09/30 01:20:20;;;;;;;0.00;0.00;;;5.10;99.90;;;;;;5095975;28;20052;-87
2022/09/30 01:23:06;;;;;;;0.00;0.00;;;5.00;99.90;;;;;;5112392;28;20055;-87
2022/09/30 01:26:02;;;;;;;0.00;0.00;;;5.00;99.90;;;;;;5094753;28;20044;-87
2022/09/30 01:28:49;;;;;;;0.32;0.28;;;5.00;99.90;;;;;;5094852;28;20035;-85
2022/09/30 01:31:24;;;;;;;0.00;0.00;;;5.00;99.90;;;;;;5112947;28;20053;-86
2022/09/30 01:34:21;;;;;;;0.00;0.00;;;5.00;99.90;;;;;;5113323;28;20024;-86
2022/09/30 01:36:46;;;;;;;0.10;0.10;;;5.00;99.90;;;;;;5080406;28;20048;-87
2022/09/30 01:39:33;;;;;;;0.00;0.00;;;6.10;99.90;;;;;;5114039;28;20086;-85
2022/09/30 01:42:05;;;;;;;0.17;0.17;;;5.10;99.90;;;;;;5095637;28;20047;-87
2022/09/30 01:44:45;;;;;;;0.00;0.00;;;5.20;99.90;;;;;;5077033;28;20068;-85
2022/09/30 01:47:35;;;;;;;0.70;0.28;;;5.10;99.90;;;;;;5112033;28;20139;-87
2022/09/30 01:50:26;;;;;;;0.32;0.32;;;5.10;99.90;;;;;;5095931;28;20047;-87
2022/09/30 01:53:13;;;;;;;0.00;0.00;;;5.00;99.90;;;;;;5113002;28;20026;-86
2022/09/30 01:56:00;;;;;;;0.00;0.00;;;5.10;99.90;;;;;;5112635;28;20062;-86
2022/09/30 01:58:41;;;;;;;0.00;0.00;;;5.10;99.90;;;;;;5111432;28;20052;-86
2022/09/30 02:01:13;;;;;;;0.73;0.38;;;5.10;99.90;;;;;;5111714;22;20631;-91
2022/09/30 02:03:47;;;;;;;0.00;0.00;;;5.00;99.90;;;;;;5058654;28;20100;-90
2022/09/30 02:06:20;;;;;;;0.10;0.10;;;5.00;99.90;;;;;;5043214;28;20044;-91
2022/09/30 02:08:56;;;;;;;0.20;0.20;;;4.00;99.90;;;;;;5059070;28;20040;-90
2022/09/30 02:11:27;;;;;;;0.15;0.15;;;5.10;99.90;;;;;;5061373;28;20059;-91
2022/09/30 02:14:37;;;;;;;0.00;0.00;;;5.80;99.90;;;;;;5064583;28;20048;-91
2022/09/30 02:17:16;;;;;;;0.10;0.10;;;5.00;99.90;;;;;;5021449;28;20064;-91
2022/09/30 02:19:46;;;;;;;0.00;0.00;;;5.00;99.90;;;;;;5043373;28;20045;-91
2022/09/30 02:22:19;;;;;;;0.00;0.00;;;4.30;99.90;;;;;;5066015;28;20100;-91
2022/09/30 02:24:48;;;;;;;0.00;0.00;;;4.30;99.90;;;;;;5070755;28;20056;-90
2022/09/30 02:27:24;;;;;;;0.00;0.00;;;4.90;99.90;;;;;;5052596;28;20062;-92
2022/09/30 02:29:58;;;;;;;0.47;0.40;;;4.90;99.90;;;;;;5083657;28;20044;-92
2022/09/30 02:32:44;;;;;;;0.08;0.08;;;4.80;99.90;;;;;;5049190;28;20047;-91
2022/09/30 02:35:35;;;;;;;0.15;0.15;;;4.70;99.90;;;;;;5061499;28;20037;-91
2022/09/30 02:38:17;;;;;;;0.00;0.00;;;4.60;99.90;;;;;;5078285;28;20047;-91
2022/09/30 02:40:58;;;;;;;0.00;0.00;;;4.60;99.90;;;;;;5061552;28;20048;-91
2022/09/30 02:43:31;;;;;;;0.00;0.00;;;4.60;99.90;;;;;;5045284;28;20071;-90
2022/09/30 02:46:27;;;;;;;0.00;0.00;;;4.50;99.90;;;;;;5060560;28;20048;-90
2022/09/30 02:49:02;;;;;;;0.40;0.40;;;4.40;99.90;;;;;;5060498;28;20062;-90
2022/09/30 02:51:42;;;;;;;0.47;0.47;;;4.40;99.90;;;;;;5077184;28;20048;-91
2022/09/30 02:54:32;;;;;;;0.00;0.00;;;4.30;99.90;;;;;;5045485;28;20060;-91
2022/09/30 02:57:29;;;;;;;0.00;0.00;;;4.20;99.90;;;;;;5080093;28;20045;-92
2022/09/30 02:59:55;;;;;;;0.57;0.47;;;4.20;99.90;;;;;;5038897;28;20050;-92
2022/09/30 03:02:22;;;;;;;0.43;0.30;;;3.90;99.90;;;;;;5021537;28;20053;-92
2022/09/30 03:04:49;;;;;;;0.00;0.00;;;4.10;99.90;;;;;;5019725;28;20041;-92
2022/09/30 03:07:15;;;;;;;0.00;0.00;;;5.00;99.90;;;;;;5056170;28;20537;-91
2022/09/30 03:09:40;;;;;;;0.03;0.03;;;5.50;99.90;;;;;;5038313;28;20049;-90
2022/09/30 03:12:32;;;;;;;0.03;0.03;;;3.80;99.90;;;;;;5038564;28;20080;-91
2022/09/30 03:15:53;;;;;;;0.17;0.17;;;5.00;99.90;;;;;;5014343;28;20132;-91
2022/09/30 03:18:48;;;;;;;0.00;0.00;;;3.70;99.90;;;;;;5040337;28;20053;-92
2022/09/30 03:21:44;;;;;;;0.77;0.70;;;4.50;99.90;;;;;;5023577;28;20457;-92
2022/09/30 03:24:28;;;;;;;0.00;0.00;;;4.40;99.90;;;;;;5040748;28;20550;-91
2022/09/30 03:27:13;;;;;;;0.00;0.00;;;4.50;99.90;;;;;;5039789;28;20500;-90
2022/09/30 03:30:00;;;;;;;0.20;0.20;;;4.50;99.90;;;;;;5039581;28;20084;-91
2022/09/30 03:32:47;;;;;;;0.00;0.00;;;4.70;99.90;;;;;;5044912;28;20053;-90
2022/09/30 03:35:29;;;;;;;0.10;0.10;;;4.80;99.90;;;;;;5064606;28;20577;-90
2022/09/30 03:38:32;;;;;;;0.20;0.20;;;4.80;99.90;;;;;;5031815;28;20045;-90
2022/09/30 03:41:26;;;;;;;0.08;0.08;;;4.90;99.90;;;;;;5051917;28;20104;-90
2022/09/30 03:44:14;;;;;;;0.00;0.00;;;5.00;99.90;;;;;;5057765;28;20093;-90
2022/09/30 03:46:50;;;;;;;0.00;0.00;;;5.60;99.90;;;;;;5056289;28;20038;-90
2022/09/30 03:49:30;;;;;;;0.00;0.00;;;4.90;99.90;;;;;;5052185;28;20049;-91
2022/09/30 03:51:58;;;;;;;0.00;0.00;;;5.30;99.90;;;;;;5033901;28;20060;-91
2022/09/30 03:54:24;;;;;;;0.30;0.20;;;5.20;99.90;;;;;;5048964;28;20049;-91
2022/09/30 03:56:50;;;;;;;0.38;0.38;;;4.70;99.90;;;;;;5045643;28;20147;-90
2022/09/30 03:59:23;;;;;;;0.00;0.00;;;4.20;99.90;;;;;;5047348;28;20068;-90
2022/09/30 04:01:51;;;;;;;0.00;0.00;;;4.70;99.90;;;;;;5047169;28;20059;-91
2022/09/30 04:04:35;;;;;;;0.05;0.05;;;4.60;99.90;;;;;;5047723;28;20106;-90
2022/09/30 04:07:01;;;;;;;0.00;0.00;;;4.30;99.90;;;;;;5046668;28;20072;-92
2022/09/30 04:09:29;;;;;;;0.00;0.00;;;5.10;99.90;;;;;;5046664;28;20056;-90
2022/09/30 04:12:02;;;;;;;0.00;0.00;;;4.20;99.90;;;;;;5044296;28;20087;-91
2022/09/30 04:14:31;;;;;;;0.00;0.00;;;5.20;99.90;;;;;;5029763;28;20033;-91
2022/09/30 04:17:02;;;;;;;0.43;0.32;;;4.10;99.90;;;;;;5065255;28;20045;-92
2022/09/30 04:19:38;;;;;;;0.00;0.00;;;5.20;99.90;;;;;;5045414;28;20132;-90
2022/09/30 04:22:07;;;;;;;0.00;0.00;;;4.80;99.90;;;;;;5027209;28;20491;-92
2022/09/30 04:24:43;;;;;;;0.05;0.05;;;4.90;99.90;;;;;;5041061;28;20049;-91
2022/09/30 04:27:14;;;;;;;0.00;0.00;;;4.20;99.90;;;;;;5042815;28;20048;-92
2022/09/30 04:29:45;;;;;;;0.00;0.00;;;4.70;99.90;;;;;;5057120;28;20124;-92
2022/09/30 04:32:10;;;;;;;0.00;0.00;;;4.50;99.90;;;;;;5039389;28;20045;-92
2022/09/30 04:34:38;;;;;;;0.00;0.00;;;3.20;99.90;;;;;;5042329;28;20045;-91
2022/09/30 04:37:04;;;;;;;0.00;0.00;;;3.90;99.90;;;;;;5025510;28;20387;-92
2022/09/30 04:39:32;;;;;;;0.05;0.05;;;4.60;99.90;;;;;;5026041;28;20045;-92
2022/09/30 04:42:00;;;;;;;0.05;0.05;;;3.90;99.90;;;;;;5044533;28;20131;-91
2022/09/30 04:44:26;;;;;;;0.05;0.05;;;4.10;99.90;;;;;;5027241;28;20056;-92
2022/09/30 04:46:54;;;;;;;0.35;0.25;;;3.90;99.90;;;;;;5026339;28;20045;-91
2022/09/30 04:49:20;;;;;;;0.13;0.13;;;5.10;99.90;;;;;;5043772;28;20592;-92
2022/09/30 04:51:46;;;;;;;0.00;0.00;;;3.90;99.90;;;;;;5028499;28;20045;-92
2022/09/30 04:54:12;;;;;;;0.20;0.20;;;5.00;99.90;;;;;;5043111;28;20037;-91
2022/09/30 04:56:39;;;;;;;0.15;0.15;;;3.80;99.90;;;;;;5023632;28;20041;-92
2022/09/30 04:59:05;;;;;;;0.00;0.00;;;3.80;99.90;;;;;;5057639;28;20045;-91
2022/09/30 05:01:31;;;;;;;0.00;0.00;;;3.80;99.90;;;;;;5020782;28;20057;-91
2022/09/30 05:04:00;;;;;;;0.25;0.20;;;3.80;99.90;;;;;;5037197;28;20086;-91
2022/09/30 05:06:25;;;;;;;0.17;0.17;;;3.80;99.90;;;;;;5036530;28;20079;-93
2022/09/30 05:08:51;;;;;;;0.00;0.00;;;3.80;99.90;;;;;;5039062;28;20115;-92
2022/09/30 05:11:22;;;;;;;0.00;0.00;;;4.50;99.90;;;;;;5022309;28;20430;-92
2022/09/30 05:13:57;;;;;;;0.00;0.00;;;3.70;99.90;;;;;;5026014;28;20045;-92
2022/09/30 05:16:23;;;;;;;0.00;0.00;;;3.20;99.90;;;;;;5033803;28;20116;-90
2022/09/30 05:18:49;;;;;;;0.00;0.00;;;3.80;99.90;;;;;;5052062;28;20040;-91
2022/09/30 05:21:21;;;;;;;0.00;0.00;;;4.10;99.90;;;;;;5030083;28;20381;-91
2022/09/30 05:23:49;;;;;;;0.00;0.00;;;4.90;99.90;;;;;;5038380;28;20049;-91
2022/09/30 05:26:15;;;;;;;0.00;0.00;;;5.10;99.90;;;;;;5018285;28;20138;-91
2022/09/30 05:28:41;;;;;;;0.20;0.20;;;3.90;99.90;;;;;;5018552;28;20080;-91
2022/09/30 05:31:07;;;;;;;0.40;0.17;;;4.00;99.90;;;;;;5035952;28;20585;-91
2022/09/30 05:33:44;;;;;;;0.00;0.00;;;4.80;99.90;;;;;;5053289;28;20063;-92
2022/09/30 05:36:21;;;;;;;0.10;0.10;;;4.80;99.90;;;;;;5037419;28;20401;-91
2022/09/30 05:38:50;;;;;;;0.35;0.32;;;4.00;99.90;;;;;;5052694;28;20069;-91
2022/09/30 05:41:18;;;;;;;0.00;0.00;;;4.30;99.90;;;;;;5056214;28;20049;-90
2022/09/30 05:43:44;;;;;;;0.00;0.00;;;5.20;99.90;;;;;;5036956;28;20051;-92
2022/09/30 05:46:09;;;;;;;0.20;0.20;;;4.10;99.90;;;;;;5036205;28;20120;-89
2022/09/30 05:48:38;;;;;;;0.00;0.00;;;4.20;99.90;;;;;;5060269;28;20101;-90
2022/09/30 05:51:08;;;;;;;0.08;0.08;;;4.50;99.90;;;;;;5043125;28;20094;-89
2022/09/30 05:53:40;;;;;;;0.20;0.20;;;6.20;99.90;;;;;;5043423;28;20049;-89
2022/09/30 05:56:14;;;;;;;0.00;0.00;;;3.70;99.90;;;;;;5046723;28;20045;-90
2022/09/30 05:58:40;;;;;;;0.00;0.00;;;5.10;99.90;;;;;;5044456;28;20053;-90
2022/09/30 06:01:16;;;;;;;0.00;0.00;;;5.10;99.90;;;;;;5039433;28;20057;-91
2022/09/30 06:03:45;;;;;;;0.00;0.00;;;4.20;99.90;;;;;;5040566;28;20102;-90
2022/09/30 06:06:12;;;;;;;0.10;0.10;;;5.10;99.90;;;;;;5038997;28;20140;-91
2022/09/30 06:08:42;;;;;;;0.13;0.10;;;4.30;99.90;;;;;;5055429;28;20061;-90
2022/09/30 06:11:13;;;;;;;0.25;0.15;;;5.60;99.90;;;;;;5022013;28;20165;-92
2022/09/30 06:13:43;;;;;;;0.00;0.00;;;4.40;99.90;;;;;;5055687;28;20103;-91
2022/09/30 06:16:10;;;;;;;0.00;0.00;;;4.50;99.90;;;;;;5056392;28;20048;-91
2022/09/30 06:18:37;;;;;;;0.00;0.00;;;4.60;99.90;;;;;;5038624;28;20045;-91
2022/09/30 06:21:11;;;;;;;0.15;0.10;;;5.50;99.90;;;;;;5058220;28;20041;-91
2022/09/30 06:23:36;;;;;;;0.20;0.20;;;5.70;99.90;;;;;;5045876;28;20056;-91
2022/09/30 06:26:07;;;;;;;0.00;0.00;;;5.90;99.90;;;;;;5030046;28;20024;-90
2022/09/30 06:28:41;;;;;;;0.05;0.05;;;4.90;99.90;;;;;;5027056;28;20048;-91
2022/09/30 06:31:38;;;;;;;0.00;0.00;;;5.00;99.90;;;;;;5061972;28;20045;-91
2022/09/30 06:34:07;;;;;;;0.00;0.00;;;6.00;99.90;;;;;;5042587;28;20067;-92
2022/09/30 06:36:38;;;;;;;0.10;0.10;;;5.70;99.90;;;;;;5030535;28;20045;-90
2022/09/30 06:39:04;;;;;;;0.10;0.10;;;6.20;99.90;;;;;;5046426;28;20077;-92
2022/09/30 06:41:39;;;;;;;0.00;0.00;;;5.30;99.90;;;;;;5040931;28;20071;-91
2022/09/30 06:44:05;;;;;;;0.05;0.05;;;4.40;99.90;;;;;;5030489;28;20132;-92
2022/09/30 06:46:31;;;;;;;0.00;0.00;;;5.50;99.90;;;;;;5048388;28;20045;-92
2022/09/30 06:49:19;;;;;;;0.10;0.10;;;6.10;99.90;;;;;;5047210;28;20241;-92
2022/09/30 06:51:45;;;;;;;0.00;0.00;;;5.40;99.90;;;;;;5046537;28;20045;-91
2022/09/30 06:54:12;;;;;;;0.00;0.00;;;5.70;99.90;;;;;;5028679;28;20133;-92
2022/09/30 06:56:52;;;;;;;;;;;;;;;;;;;;;
2022/09/30 06:59:47;;;;;;;0.00;0.00;;;7.20;99.90;;;;;;5044007;28;20105;-92
2022/09/30 07:02:57;;;;;;;;;;;;;;;;;;;;;
2022/09/30 07:05:42;;;;;;;0.00;0.00;;;7.10;99.90;;;;;;5043688;28;20093;-92
2022/09/30 07:12:23;;;;;;;0.60;0.60;;;5.90;99.90;;;;;;5011635;28;20085;-92
2022/09/30 07:15:16;;;;;;;;;;;;;;;;;;;;;
2022/09/30 07:17:59;;;;;;;0.20;0.10;;;6.80;99.90;;;;;;5043279;28;20620;-92
2022/09/30 07:20:27;;;;;;;0.03;0.03;;;7.70;99.90;;;;;;5032736;28;20100;-90
2022/09/30 07:22:54;;;;;;;1.00;0.75;;;6.60;99.90;;;;;;5034116;28;20045;-90
2022/09/30 07:31:38;;;;;;;0.22;0.22;;;6.70;99.90;;;;;;5037897;28;20061;-76
2022/09/30 07:34:08;;;;;;;1.17;1.02;;;6.70;99.90;;;;;;5041248;28;20120;-77
2022/09/30 07:36:36;;;;;;;0.25;0.25;;;6.70;99.90;;;;;;5039030;28;20045;-76
2022/09/30 07:39:04;;;;;;;0.00;0.00;;;6.80;99.90;;;;;;5035867;28;20057;-76
2022/09/30 07:41:30;;;;;;;1.98;1.27;;;6.90;99.90;;;;;;5039320;28;20056;-76
2022/09/30 07:43:58;;;;;;;1.17;0.63;;;7.00;99.90;;;;;;5041593;28;20101;-77
2022/09/30 07:46:27;;;;;;;0.82;0.80;;;7.10;99.90;;;;;;5041081;28;20082;-76
2022/09/30 07:48:56;;;;;;;0.63;0.63;;;7.20;99.90;;;;;;5016917;28;20026;-77
2022/09/30 07:51:49;;;;;;;2.17;0.90;;;7.40;99.90;;;;;;5042312;28;20029;-75
2022/09/30 07:54:17;;;;;;;1.45;0.75;;;7.50;99.90;;;;;;5040470;28;20049;-76
2022/09/30 07:56:44;;;;;;;1.75;1.52;;;7.60;99.90;;;;;;5042042;28;20049;-75
2022/09/30 07:59:11;;;;;;;1.17;1.08;;;7.70;99.90;;;;;;5043472;28;20029;-77
2022/09/30 08:01:36;;;;;;;1.42;1.13;;;7.90;99.90;;;;;;5045605;28;20144;-77
2022/09/30 08:04:05;;;;;;;0.70;0.70;;;7.90;99.90;;;;;;5046627;28;20029;-77
2022/09/30 08:06:35;;;;;;;0.22;0.22;;;8.10;99.90;;;;;;5046640;28;20041;-77
2022/09/30 08:09:01;;;;;;;1.02;0.85;;;8.20;99.90;;;;;;5044391;28;20032;-76
2022/09/30 08:11:26;;;;;;;0.77;0.70;;;8.40;99.90;;;;;;5042975;28;20025;-76
2022/09/30 08:13:55;;;;;;;2.60;1.15;;;8.40;99.90;;;;;;5042539;28;20072;-77
2022/09/30 08:16:22;;;;;;;6.05;0.80;;;8.50;99.90;;;;;;5045376;28;20362;-77
2022/09/30 08:18:48;;;;;;;1.25;0.35;;;8.60;99.90;;;;;;5044199;28;20087;-75
2022/09/30 08:21:14;;;;;;;0.88;0.68;;;8.80;99.90;;;;;;5045815;28;20021;-77
2022/09/30 08:23:40;;;;;;;0.80;0.80;;;8.90;99.90;;;;;;5040283;28;20052;-77
2022/09/30 08:26:12;;;;;;;0.10;0.10;;;9.00;99.90;;;;;;5041699;28;20068;-75
2022/09/30 08:28:38;;;;;;;1.75;1.27;;;9.10;99.90;;;;;;5044646;28;20124;-76
2022/09/30 08:31:10;;;;;;;1.00;0.80;;;9.30;99.90;;;;;;5063864;28;20059;-76
2022/09/30 08:33:36;;;;;;;0.82;0.65;;;9.30;99.90;;;;;;5063523;28;20052;-77
2022/09/30 08:36:04;;;;;;;1.38;0.93;;;9.50;99.90;;;;;;5060163;28;20021;-77
2022/09/30 08:38:30;;;;;;;1.05;0.95;;;9.50;99.90;;;;;;5052449;28;20079;-76
2022/09/30 08:41:13;;;;;;;0.10;0.08;;;9.70;99.90;;;;;;5050500;28;20025;-76
2022/09/30 08:44:24;;;;;;;0.98;0.90;;;9.70;99.90;;;;;;5052077;28;20056;-76
2022/09/30 08:46:56;;;;;;;2.10;1.20;;;9.80;99.90;;;;;;5050721;28;20045;-76
2022/09/30 08:49:27;;;;;;;0.88;0.73;;;10.20;99.90;;;;;;5059009;28;20061;-77
2022/09/30 08:51:53;;;;;;;0.63;0.43;;;10.50;99.90;;;;;;5058207;28;20155;-76
2022/09/30 08:54:24;;;;;;;1.33;0.82;;;10.70;99.90;;;;;;5061899;28;20048;-76
2022/09/30 08:56:50;;;;;;;0.40;0.40;;;10.90;99.90;;;;;;5060361;28;20072;-76
2022/09/30 08:59:43;;;;;;;0.63;0.63;;;10.90;99.90;;;;;;5060028;28;20051;-76
2022/09/30 09:02:26;;;;;;;0.70;0.70;;;11.00;99.90;;;;;;5057433;28;20053;-76
2022/09/30 09:04:56;;;;;;;0.85;0.68;;;11.20;99.90;;;;;;5058695;28;20041;-76
2022/09/30 09:07:56;;;;;;;2.88;1.58;;;11.20;99.90;;;;;;5059590;28;20031;-76
2022/09/30 09:10:44;;;;;;;1.70;1.52;;;11.20;99.90;;;;;;5056489;28;20060;-76
2022/09/30 09:13:45;;;;;;;0.55;0.40;;;11.40;99.90;;;;;;5058866;28;20537;-75
2022/09/30 09:16:33;;;;;;;0.52;0.52;;;11.50;99.90;;;;;;5059984;28;20172;-77
2022/09/30 09:19:10;;;;;;;0.20;0.20;;;11.60;99.90;;;;;;5055929;28;20116;-76
2022/09/30 09:21:56;;;;;;;2.88;0.60;;;11.80;99.90;;;;;;5057388;28;20139;-77
2022/09/30 09:24:27;;;;;;;1.05;0.77;;;11.90;99.90;;;;;;5051890;28;20075;-75
2022/09/30 09:26:55;;;;;;;2.42;1.13;;;11.90;99.90;;;;;;5048337;28;20086;-77
2022/09/30 09:29:42;;;;;;;0.40;0.40;;;11.90;99.90;;;;;;5047506;28;20065;-76
2022/09/30 09:32:12;;;;;;;;;;;12.10;99.90;;;;;;5051786;28;20106;-77
2022/09/30 09:34:38;;;;;;;1.27;0.85;;;12.30;99.90;;;;;;5111071;22;19909;-95
2022/09/30 09:37:13;;;;;;;1.77;1.35;;;13.30;99.90;;;;;;5283378;23;20060;-94
2022/09/30 09:39:57;;;;;;;1.70;1.15;;;13.00;99.90;;;;;;5074886;28;20067;-92
2022/09/30 09:43:11;;;;;;;0.47;0.47;;;13.20;99.90;;;;;;5075859;28;20044;-93
2022/09/30 09:46:05;;;;;;;;;;;;;;;;;;;;;
2022/09/30 09:48:38;;;;;;;0.52;0.32;;;13.10;99.90;;;;;;5091288;28;20044;-93
2022/09/30 09:51:10;;;;;;;0.25;0.25;;;13.30;99.90;;;;;;5329691;22;20049;-94
2022/09/30 09:53:52;;;;;;;1.02;0.60;;;13.30;99.90;;;;;;5081199;28;20103;-93
2022/09/30 09:56:25;;;;;;;0.70;0.70;;;13.60;99.90;;;;;;5079870;28;20035;-94
2022/09/30 09:59:13;;;;;;;0.80;0.57;;;13.60;99.90;;;;;;5079443;28;20024;-93
2022/09/30 10:01:51;;;;;;;0.82;0.73;;;13.80;99.90;;;;;;5076476;28;20084;-95
2022/09/30 10:04:19;;;;;;;1.35;1.05;;;14.40;99.90;;;;;;5060062;28;20088;-94
2022/09/30 10:06:58;;;;;;;5.18;0.90;;;14.50;99.90;;;;;;5060647;28;20086;-95
2022/09/30 10:09:33;;;;;;;1.10;0.73;;;15.00;99.90;;;;;;5044269;28;20021;-95
2022/09/30 10:12:05;;;;;;;0.20;0.20;;;14.20;99.90;;;;;;5043492;28;20032;-94
2022/09/30 10:14:59;;;;;;;2.83;1.60;;;14.90;99.90;;;;;;5088744;23;20056;-92
2022/09/30 10:17:52;;;;;;;1.10;0.77;;;15.00;99.90;;;;;;5094379;28;20059;-93
2022/09/30 10:20:35;;;;;;;1.00;0.82;;;14.50;51.50;;;;;;5090799;28;20200;-94
2022/09/30 10:23:04;;;;;;;0.60;0.50;;;14.60;1.00;;;;;;5093418;28;20535;-94
2022/09/30 10:25:33;;;;;;;0.88;0.75;;;15.40;38.20;;;;;;5077218;28;20036;-93
2022/09/30 10:28:02;;;;;;;1.25;0.82;;;16.00;82.30;;;;;;5092827;28;20054;-94
2022/09/30 10:30:55;;;;;;;0.35;0.35;;;16.20;90.40;;;;;;5091333;28;20032;-94
2022/09/30 10:33:23;;;;;;;0.85;0.63;;;15.90;32.80;;;;;;5090154;28;20037;-94
2022/09/30 10:35:56;;;;;;;0.38;0.35;;;17.00;19.50;;;;;;5091238;28;20044;-94
2022/09/30 10:38:27;;;;;;;0.77;0.13;;;16.80;1.00;;;;;;5091511;28;20037;-93
2022/09/30 10:40:53;;;;;;;0.00;0.00;;;17.40;99.90;;;;;;5074334;28;20042;-93
2022/09/30 10:43:43;;;;;;;0.05;0.05;;;16.90;99.90;;;;;;5089118;28;20028;-93
2022/09/30 10:46:10;;;;;;;0.13;0.13;;;16.60;99.90;;;;;;5061247;28;20052;-93
2022/09/30 10:48:37;;;;;;;5.32;0.43;;;17.30;99.90;;;;;;5070233;28;20064;-94
2022/09/30 10:51:27;;;;;;;0.00;0.00;;;16.70;99.90;;;;;;5088750;28;20036;-92
2022/09/30 10:53:53;;;;;;;0.20;0.20;;;17.20;79.70;;;;;;5074847;28;20041;-94
2022/09/30 10:56:53;;;;;;;0.10;0.10;;;17.00;92.60;;;;;;5070950;28;20055;-91
2022/09/30 10:59:27;;;;;;;0.00;0.00;;;17.90;1.00;;;;;;5088417;28;20649;-92
2022/09/30 11:02:04;;;;;;;0.65;0.65;;;17.80;99.90;;;;;;5051508;28;20077;-93
2022/09/30 11:04:42;;;;;;;0.20;0.17;;;17.40;99.90;;;;;;5054807;28;20040;-94
2022/09/30 11:07:47;;;;;;;0.00;0.00;;;17.60;99.90;;;;;;5073143;28;20041;-92
2022/09/30 11:10:24;;;;;;;0.08;0.08;;;17.70;1.00;;;;;;5056420;28;20072;-94
2022/09/30 11:13:12;;;;;;;0.00;0.00;;;18.90;1.00;;;;;;5072753;28;20045;-93
2022/09/30 11:16:23;;;;;;;0.05;0.05;;;18.60;1.00;;;;;;5056287;28;20052;-93
2022/09/30 11:18:58;;;;;;;0.20;0.10;;;17.80;1.00;;;;;;5056975;28;20097;-92
2022/09/30 11:22:05;;;;;;;0.32;0.10;;;17.40;99.90;;;;;;5072495;28;20037;-92
2022/09/30 11:24:36;;;;;;;0.03;0.03;;;18.20;99.90;;;;;;5019744;28;20045;-93
2022/09/30 11:27:30;;;;;;;0.22;0.22;;;18.20;99.90;;;;;;5070981;28;20473;-94
2022/09/30 11:30:18;;;;;;;0.20;0.20;;;18.30;99.90;;;;;;5071647;28;20032;-93
2022/09/30 11:33:11;;;;;;;0.28;0.22;;;18.50;99.90;;;;;;5071231;28;20040;-93
2022/09/30 11:36:02;;;;;;;0.10;0.10;;;18.80;99.90;;;;;;5058948;28;20029;-93
2022/09/30 11:39:08;;;;;;;0.85;0.38;;;18.90;99.90;;;;;;5058284;28;20033;-93
2022/09/30 11:41:47;;;;;;;0.50;0.32;;;18.90;21.10;;;;;;5075249;28;20044;-93
2022/09/30 11:44:36;;;;;;;0.50;0.38;;;18.80;99.90;;;;;;5076841;28;20094;-92
2022/09/30 11:47:16;;;;;;;0.00;0.00;;;18.60;99.90;;;;;;5076067;28;20071;-92
2022/09/30 11:50:37;;;;;;;0.10;0.10;;;18.30;99.90;;;;;;5075775;28;20051;-92
2022/09/30 11:53:06;;;;;;;0.40;0.15;;;18.40;1.00;;;;;;5018675;28;20025;-92
2022/09/30 11:55:34;;;;;;;0.20;0.20;;;18.20;1.00;;;;;;5063720;28;20033;-92
2022/09/30 11:58:09;;;;;;;0.30;0.30;;;19.60;1.00;;;;;;5074940;28;20021;-92
2022/09/30 12:00:39;;;;;;;0.00;0.00;;;19.10;99.90;;;;;;5058483;28;20033;-91
2022/09/30 12:03:20;;;;;;;0.32;0.22;;;19.00;99.90;;;;;;5074607;28;20288;-93
2022/09/30 12:05:57;;;;;;;0.65;0.45;;;18.70;99.90;;;;;;5070073;28;20032;-93
2022/09/30 12:08:32;;;;;;;0.30;0.22;;;18.70;99.90;;;;;;5068359;28;20104;-93
2022/09/30 12:11:14;;;;;;;0.32;0.20;;;18.80;99.90;;;;;;5069232;28;20045;-91
2022/09/30 12:13:46;;;;;;;0.10;0.10;;;18.70;99.90;;;;;;5068076;28;20057;-92
2022/09/30 12:16:18;;;;;;;0.00;0.00;;;18.80;99.90;;;;;;5067787;28;20056;-92
2022/09/30 12:19:15;;;;;;;0.38;0.15;;;19.30;1.00;;;;;;5050157;28;20101;-92
2022/09/30 12:21:53;;;;;;;;;;;18.70;42.00;;;;;;5046045;28;20060;-93
2022/09/30 12:24:35;;;;;;;0.15;0.10;;;18.90;1.00;;;;;;5068460;28;19921;-91
2022/09/30 12:27:01;;;;;;;0.00;0.00;;;19.50;1.00;;;;;;5050630;28;20098;-91
2022/09/30 12:32:48;;;;;;;0.35;0.20;;;19.70;1.00;;;;;;5072387;28;20056;-92
2022/09/30 12:35:46;;;;;;;0.00;0.00;;;19.40;99.90;;;;;;5057022;28;20048;-91
2022/09/30 12:38:27;;;;;;;0.08;0.08;;;19.50;99.90;;;;;;5071040;28;20122;-92
2022/09/30 12:41:20;;;;;;;0.15;0.15;;;19.70;99.90;;;;;;5054882;28;20419;-91
2022/09/30 12:43:53;;;;;;;0.90;0.65;;;19.90;99.90;;;;;;5066194;28;20167;-92
2022/09/30 12:46:42;;;;;;;0.10;0.10;;;20.10;99.90;;;;;;5048680;28;20052;-91
2022/09/30 12:49:18;;;;;;;0.20;0.20;;;20.90;99.90;;;;;;5052899;28;20053;-91
2022/09/30 12:51:54;;;;;;;0.43;0.20;;;20.70;99.90;;;;;;5064680;28;20052;-92
2022/09/30 12:54:46;;;;;;;1.23;0.63;;;20.80;99.90;;;;;;5064024;28;20423;-91
2022/09/30 12:57:23;;;;;;;0.28;0.20;;;20.90;99.90;;;;;;5066557;28;20060;-91
2022/09/30 12:59:56;;;;;;;0.63;0.50;;;20.20;53.30;;;;;;5062273;28;20049;-91
2022/09/30 13:02:36;;;;;;;1.77;1.08;;;20.40;99.90;;;;;;5046007;28;20109;-91
2022/09/30 13:05:29;;;;;;;1.98;0.10;;;20.70;1.00;;;;;;5062183;28;20037;-92
2022/09/30 13:08:09;;;;;;;1.35;0.40;;;21.00;1.00;;;;;;5059296;28;20055;-90
2022/09/30 13:10:38;;;;;;;0.15;0.08;;;19.60;66.40;;;;;;5057832;28;20168;-92
2022/09/30 13:13:09;;;;;;;0.00;0.00;;;20.30;99.90;;;;;;5054874;28;20041;-92
2022/09/30 13:15:45;;;;;;;1.27;0.63;;;19.40;99.90;;;;;;5058486;28;20053;-91
2022/09/30 13:18:20;;;;;;;0.20;0.20;;;19.00;99.90;;;;;;5056951;28;20045;-91
2022/09/30 13:20:57;;;;;;;0.60;0.50;;;18.90;99.90;;;;;;5038313;28;20052;-91
2022/09/30 13:23:50;;;;;;;0.30;0.28;;;18.70;99.90;;;;;;5054614;28;20040;-91
2022/09/30 13:26:26;;;;;;;0.00;0.00;;;18.60;99.90;;;;;;5054623;28;20052;-91
2022/09/30 13:28:53;;;;;;;0.30;0.17;;;18.40;99.90;;;;;;5055273;28;20060;-91
2022/09/30 13:31:22;;;;;;;0.28;0.28;;;18.40;99.90;;;;;;5057149;28;20098;-90
2022/09/30 13:34:05;;;;;;;0.22;0.22;;;18.40;99.90;;;;;;5059044;28;20067;-91
2022/09/30 13:36:37;;;;;;;0.47;0.40;;;18.60;99.90;;;;;;5056390;28;20045;-91
2022/09/30 13:39:18;;;;;;;0.28;0.28;;;20.30;99.90;;;;;;5056729;28;20057;-91
2022/09/30 13:42:06;;;;;;;0.82;0.70;;;19.80;99.90;;;;;;5056684;28;20041;-91
2022/09/30 13:44:57;;;;;;;0.40;0.40;;;19.20;99.90;;;;;;5038923;28;20049;-91
2022/09/30 13:47:43;;;;;;;0.75;0.73;;;19.00;99.90;;;;;;5061694;28;20052;-90
2022/09/30 13:50:37;;;;;;;2.37;0.77;;;18.90;99.90;;;;;;5059531;28;20049;-91
2022/09/30 13:53:15;;;;;;;1.65;1.08;;;19.20;99.90;;;;;;5042570;28;20520;-90
2022/09/30 13:55:46;;;;;;;0.40;0.40;;;19.50;99.90;;;;;;5060495;28;20078;-90
2022/09/30 13:58:42;;;;;;;0.43;0.43;;;19.20;99.90;;;;;;5039554;28;20037;-90